sensor_id;sensor_type;location;lat;lon;timestamp;P1;durP1;ratioP1;P2;durP2;ratioP2
78931;SDS011;68331;53.362;55.932;2024-03-23T00:54:08;33.92;;;14.77;;
78931;SDS011;68331;53.362;55.932;2024-03-23T00:56:33;28.83;;;13.98;;
78931;SDS011;68331;53.362;55.932;2024-03-23T00:58:59;33.00;;;15.25;;
78931;SDS011;68331;53.362;55.932;2024-03-23T01:01:25;32.90;;;16.73;;
78931;SDS011;68331;53.362;55.932;2024-03-23T01:03:51;31.08;;;15.05;;
78931;SDS011;68331;53.362;55.932;2024-03-23T01:06:17;36.35;;;15.15;;
78931;SDS011;68331;53.362;55.932;2024-03-23T01:08:43;28.35;;;15.77;;
78931;SDS011;68331;53.362;55.932;2024-03-23T01:11:10;27.63;;;15.18;;
78931;SDS011;68331;53.362;55.932;2024-03-23T01:13:36;28.50;;;14.90;;
78931;SDS011;68331;53.362;55.932;2024-03-23T01:16:02;32.88;;;15.18;;
78931;SDS011;68331;53.362;55.932;2024-03-23T01:18:28;36.80;;;16.67;;
78931;SDS011;68331;53.362;55.932;2024-03-23T01:20:54;30.60;;;16.35;;
78931;SDS011;68331;53.362;55.932;2024-03-23T01:23:20;32.17;;;14.90;;
78931;SDS011;68331;53.362;55.932;2024-03-23T01:25:53;30.45;;;16.20;;
78931;SDS011;68331;53.362;55.932;2024-03-23T01:28:20;33.47;;;16.00;;
78931;SDS011;68331;53.362;55.932;2024-03-23T01:30:46;32.50;;;17.30;;
78931;SDS011;68331;53.362;55.932;2024-03-23T01:33:13;29.35;;;15.70;;
78931;SDS011;68331;53.362;55.932;2024-03-23T01:35:38;34.72;;;18.20;;
78931;SDS011;68331;53.362;55.932;2024-03-23T01:38:05;41.80;;;18.33;;
78931;SDS011;68331;53.362;55.932;2024-03-23T01:40:31;35.55;;;17.05;;
78931;SDS011;68331;53.362;55.932;2024-03-23T01:42:58;28.80;;;13.90;;
78931;SDS011;68331;53.362;55.932;2024-03-23T01:45:29;29.65;;;15.85;;
78931;SDS011;68331;53.362;55.932;2024-03-23T01:47:56;29.80;;;15.07;;
78931;SDS011;68331;53.362;55.932;2024-03-23T01:50:22;32.78;;;14.88;;
78931;SDS011;68331;53.362;55.932;2024-03-23T01:52:51;31.75;;;15.70;;
78931;SDS011;68331;53.362;55.932;2024-03-23T01:55:18;32.55;;;15.05;;
78931;SDS011;68331;53.362;55.932;2024-03-23T01:57:45;29.70;;;14.20;;
78931;SDS011;68331;53.362;55.932;2024-03-23T02:00:11;36.45;;;15.25;;
78931;SDS011;68331;53.362;55.932;2024-03-23T02:02:42;29.90;;;14.98;;
78931;SDS011;68331;53.362;55.932;2024-03-23T02:05:11;30.05;;;15.60;;
78931;SDS011;68331;53.362;55.932;2024-03-23T02:07:39;30.60;;;13.95;;
78931;SDS011;68331;53.362;55.932;2024-03-23T02:10:07;24.20;;;13.88;;
78931;SDS011;68331;53.362;55.932;2024-03-23T02:12:34;33.97;;;15.60;;
78931;SDS011;68331;53.362;55.932;2024-03-23T02:15:01;27.48;;;14.45;;
78931;SDS011;68331;53.362;55.932;2024-03-23T02:17:33;30.05;;;13.48;;
78931;SDS011;68331;53.362;55.932;2024-03-23T02:22:37;18.30;;;10.65;;
78931;SDS011;68331;53.362;55.932;2024-03-23T02:25:04;30.42;;;12.20;;
78931;SDS011;68331;53.362;55.932;2024-03-23T02:27:31;21.40;;;13.07;;
78931;SDS011;68331;53.362;55.932;2024-03-23T02:29:57;28.67;;;13.50;;
78931;SDS011;68331;53.362;55.932;2024-03-23T02:32:23;22.80;;;11.63;;
78931;SDS011;68331;53.362;55.932;2024-03-23T02:34:49;27.00;;;13.40;;
78931;SDS011;68331;53.362;55.932;2024-03-23T02:37:15;24.00;;;13.20;;
78931;SDS011;68331;53.362;55.932;2024-03-23T02:39:41;22.67;;;12.35;;
78931;SDS011;68331;53.362;55.932;2024-03-23T02:42:07;28.25;;;12.98;;
78931;SDS011;68331;53.362;55.932;2024-03-23T02:44:33;22.10;;;11.95;;
78931;SDS011;68331;53.362;55.932;2024-03-23T02:46:59;22.90;;;12.00;;
78931;SDS011;68331;53.362;55.932;2024-03-23T02:49:25;28.33;;;13.75;;
78931;SDS011;68331;53.362;55.932;2024-03-23T02:51:51;23.40;;;11.73;;
78931;SDS011;68331;53.362;55.932;2024-03-23T02:54:17;23.58;;;13.90;;
78931;SDS011;68331;53.362;55.932;2024-03-23T02:56:43;25.75;;;13.32;;
78931;SDS011;68331;53.362;55.932;2024-03-23T02:59:09;21.67;;;11.73;;
78931;SDS011;68331;53.362;55.932;2024-03-23T03:01:35;24.15;;;12.27;;
78931;SDS011;68331;53.362;55.932;2024-03-23T03:04:01;22.70;;;12.85;;
78931;SDS011;68331;53.362;55.932;2024-03-23T03:06:27;22.42;;;11.45;;
78931;SDS011;68331;53.362;55.932;2024-03-23T03:08:53;22.17;;;11.52;;
78931;SDS011;68331;53.362;55.932;2024-03-23T03:11:20;18.02;;;10.55;;
78931;SDS011;68331;53.362;55.932;2024-03-23T03:13:46;26.73;;;13.40;;
78931;SDS011;68331;53.362;55.932;2024-03-23T03:16:12;28.15;;;12.95;;
78931;SDS011;68331;53.362;55.932;2024-03-23T03:18:38;22.88;;;11.82;;
78931;SDS011;68331;53.362;55.932;2024-03-23T03:21:06;21.10;;;11.15;;
78931;SDS011;68331;53.362;55.932;2024-03-23T03:23:37;21.35;;;12.07;;
78931;SDS011;68331;53.362;55.932;2024-03-23T03:26:04;22.20;;;10.82;;
78931;SDS011;68331;53.362;55.932;2024-03-23T03:28:31;22.48;;;11.27;;
78931;SDS011;68331;53.362;55.932;2024-03-23T03:30:59;20.25;;;11.55;;
78931;SDS011;68331;53.362;55.932;2024-03-23T03:33:26;21.48;;;12.15;;
78931;SDS011;68331;53.362;55.932;2024-03-23T03:35:55;22.98;;;11.27;;
78931;SDS011;68331;53.362;55.932;2024-03-23T03:38:21;19.25;;;11.63;;
78931;SDS011;68331;53.362;55.932;2024-03-23T03:40:47;21.58;;;12.18;;
78931;SDS011;68331;53.362;55.932;2024-03-23T03:43:14;20.25;;;11.63;;
78931;SDS011;68331;53.362;55.932;2024-03-23T03:45:40;23.33;;;12.63;;
78931;SDS011;68331;53.362;55.932;2024-03-23T03:48:06;25.92;;;12.20;;
78931;SDS011;68331;53.362;55.932;2024-03-23T03:50:34;23.38;;;12.35;;
78931;SDS011;68331;53.362;55.932;2024-03-23T03:53:00;22.00;;;11.52;;
78931;SDS011;68331;53.362;55.932;2024-03-23T03:55:26;24.35;;;12.82;;
78931;SDS011;68331;53.362;55.932;2024-03-23T03:57:52;25.15;;;12.13;;
78931;SDS011;68331;53.362;55.932;2024-03-23T04:00:19;22.35;;;10.80;;
78931;SDS011;68331;53.362;55.932;2024-03-23T04:02:45;23.05;;;12.85;;
78931;SDS011;68331;53.362;55.932;2024-03-23T04:05:12;24.63;;;12.40;;
78931;SDS011;68331;53.362;55.932;2024-03-23T04:07:38;24.25;;;12.38;;
78931;SDS011;68331;53.362;55.932;2024-03-23T04:10:04;26.00;;;13.32;;
78931;SDS011;68331;53.362;55.932;2024-03-23T04:12:33;20.50;;;12.30;;
78931;SDS011;68331;53.362;55.932;2024-03-23T04:15:00;19.60;;;10.98;;
78931;SDS011;68331;53.362;55.932;2024-03-23T04:17:31;22.35;;;12.70;;
78931;SDS011;68331;53.362;55.932;2024-03-23T04:19:58;23.98;;;12.00;;
78931;SDS011;68331;53.362;55.932;2024-03-23T04:22:24;20.13;;;11.40;;
78931;SDS011;68331;53.362;55.932;2024-03-23T04:24:54;23.20;;;11.75;;
78931;SDS011;68331;53.362;55.932;2024-03-23T04:27:21;21.88;;;11.88;;
78931;SDS011;68331;53.362;55.932;2024-03-23T04:29:50;22.55;;;11.43;;
78931;SDS011;68331;53.362;55.932;2024-03-23T04:32:16;21.85;;;12.75;;
78931;SDS011;68331;53.362;55.932;2024-03-23T04:34:43;20.83;;;12.20;;
78931;SDS011;68331;53.362;55.932;2024-03-23T04:37:10;23.10;;;11.70;;
78931;SDS011;68331;53.362;55.932;2024-03-23T04:39:37;20.13;;;11.77;;
78931;SDS011;68331;53.362;55.932;2024-03-23T04:42:03;20.55;;;12.77;;
78931;SDS011;68331;53.362;55.932;2024-03-23T04:44:30;21.42;;;11.98;;
78931;SDS011;68331;53.362;55.932;2024-03-23T04:46:56;18.52;;;11.77;;
78931;SDS011;68331;53.362;55.932;2024-03-23T04:49:24;20.60;;;12.25;;
78931;SDS011;68331;53.362;55.932;2024-03-23T04:51:51;15.90;;;10.32;;
78931;SDS011;68331;53.362;55.932;2024-03-23T04:54:17;22.80;;;11.75;;
78931;SDS011;68331;53.362;55.932;2024-03-23T04:56:43;18.88;;;10.68;;
78931;SDS011;68331;53.362;55.932;2024-03-23T04:59:09;19.20;;;10.98;;
78931;SDS011;68331;53.362;55.932;2024-03-23T05:01:36;20.02;;;11.02;;
78931;SDS011;68331;53.362;55.932;2024-03-23T05:04:09;19.27;;;11.88;;
78931;SDS011;68331;53.362;55.932;2024-03-23T05:06:35;18.75;;;10.93;;
78931;SDS011;68331;53.362;55.932;2024-03-23T05:09:01;19.27;;;11.00;;
78931;SDS011;68331;53.362;55.932;2024-03-23T05:11:37;20.58;;;10.65;;
78931;SDS011;68331;53.362;55.932;2024-03-23T05:14:04;20.45;;;13.15;;
78931;SDS011;68331;53.362;55.932;2024-03-23T05:16:30;17.05;;;10.77;;
78931;SDS011;68331;53.362;55.932;2024-03-23T05:18:56;20.65;;;10.95;;
78931;SDS011;68331;53.362;55.932;2024-03-23T05:21:22;22.73;;;9.75;;
78931;SDS011;68331;53.362;55.932;2024-03-23T05:23:48;16.95;;;10.60;;
78931;SDS011;68331;53.362;55.932;2024-03-23T05:26:14;18.17;;;10.75;;
78931;SDS011;68331;53.362;55.932;2024-03-23T05:28:40;19.73;;;10.75;;
78931;SDS011;68331;53.362;55.932;2024-03-23T05:31:06;18.58;;;10.98;;
78931;SDS011;68331;53.362;55.932;2024-03-23T05:33:32;19.02;;;11.73;;
78931;SDS011;68331;53.362;55.932;2024-03-23T05:35:58;18.73;;;10.57;;
78931;SDS011;68331;53.362;55.932;2024-03-23T05:38:25;18.30;;;10.70;;
78931;SDS011;68331;53.362;55.932;2024-03-23T05:40:58;16.73;;;10.40;;
78931;SDS011;68331;53.362;55.932;2024-03-23T05:43:25;17.88;;;9.93;;
78931;SDS011;68331;53.362;55.932;2024-03-23T05:45:55;16.50;;;10.68;;
78931;SDS011;68331;53.362;55.932;2024-03-23T05:48:22;17.73;;;9.88;;
78931;SDS011;68331;53.362;55.932;2024-03-23T05:50:49;19.35;;;10.90;;
78931;SDS011;68331;53.362;55.932;2024-03-23T05:53:16;16.05;;;9.75;;
78931;SDS011;68331;53.362;55.932;2024-03-23T05:55:43;17.08;;;10.55;;
78931;SDS011;68331;53.362;55.932;2024-03-23T05:58:09;18.35;;;10.25;;
78931;SDS011;68331;53.362;55.932;2024-03-23T06:00:35;17.05;;;10.40;;
78931;SDS011;68331;53.362;55.932;2024-03-23T06:03:01;17.25;;;10.38;;
78931;SDS011;68331;53.362;55.932;2024-03-23T06:05:27;17.27;;;10.32;;
78931;SDS011;68331;53.362;55.932;2024-03-23T06:07:53;16.10;;;9.60;;
78931;SDS011;68331;53.362;55.932;2024-03-23T06:10:20;15.23;;;9.90;;
78931;SDS011;68331;53.362;55.932;2024-03-23T06:12:46;17.35;;;10.00;;
78931;SDS011;68331;53.362;55.932;2024-03-23T06:15:12;14.30;;;9.82;;
78931;SDS011;68331;53.362;55.932;2024-03-23T06:17:38;15.00;;;9.30;;
78931;SDS011;68331;53.362;55.932;2024-03-23T06:20:05;14.68;;;9.70;;
78931;SDS011;68331;53.362;55.932;2024-03-23T06:22:35;15.63;;;10.10;;
78931;SDS011;68331;53.362;55.932;2024-03-23T06:25:02;15.82;;;10.48;;
78931;SDS011;68331;53.362;55.932;2024-03-23T06:27:28;17.42;;;10.27;;
78931;SDS011;68331;53.362;55.932;2024-03-23T06:29:55;16.83;;;9.52;;
78931;SDS011;68331;53.362;55.932;2024-03-23T06:32:21;17.13;;;9.80;;
78931;SDS011;68331;53.362;55.932;2024-03-23T06:34:47;14.75;;;9.90;;
78931;SDS011;68331;53.362;55.932;2024-03-23T06:37:13;13.70;;;10.02;;
78931;SDS011;68331;53.362;55.932;2024-03-23T06:39:39;17.65;;;9.73;;
78931;SDS011;68331;53.362;55.932;2024-03-23T06:42:05;14.98;;;9.82;;
78931;SDS011;68331;53.362;55.932;2024-03-23T06:44:31;15.73;;;9.35;;
78931;SDS011;68331;53.362;55.932;2024-03-23T06:46:57;14.90;;;10.18;;
78931;SDS011;68331;53.362;55.932;2024-03-23T06:49:23;13.63;;;8.77;;
78931;SDS011;68331;53.362;55.932;2024-03-23T06:51:49;14.18;;;9.43;;
78931;SDS011;68331;53.362;55.932;2024-03-23T06:54:19;14.60;;;8.80;;
78931;SDS011;68331;53.362;55.932;2024-03-23T06:56:45;15.50;;;9.70;;
78931;SDS011;68331;53.362;55.932;2024-03-23T06:59:11;13.50;;;9.90;;
78931;SDS011;68331;53.362;55.932;2024-03-23T07:01:37;16.42;;;10.73;;
78931;SDS011;68331;53.362;55.932;2024-03-23T07:04:04;19.65;;;11.30;;
78931;SDS011;68331;53.362;55.932;2024-03-23T07:06:31;21.42;;;11.88;;
78931;SDS011;68331;53.362;55.932;2024-03-23T07:08:57;20.05;;;11.55;;
78931;SDS011;68331;53.362;55.932;2024-03-23T07:11:23;20.77;;;13.50;;
78931;SDS011;68331;53.362;55.932;2024-03-23T07:13:50;23.73;;;13.35;;
78931;SDS011;68331;53.362;55.932;2024-03-23T07:16:17;19.10;;;12.02;;
78931;SDS011;68331;53.362;55.932;2024-03-23T07:18:43;22.27;;;13.05;;
78931;SDS011;68331;53.362;55.932;2024-03-23T07:21:09;21.70;;;13.98;;
78931;SDS011;68331;53.362;55.932;2024-03-23T07:23:36;19.98;;;11.88;;
78931;SDS011;68331;53.362;55.932;2024-03-23T07:26:02;24.08;;;10.70;;
78931;SDS011;68331;53.362;55.932;2024-03-23T07:28:30;16.17;;;9.50;;
78931;SDS011;68331;53.362;55.932;2024-03-23T07:33:28;16.35;;;10.38;;
78931;SDS011;68331;53.362;55.932;2024-03-23T07:35:54;22.67;;;10.63;;
78931;SDS011;68331;53.362;55.932;2024-03-23T07:38:20;16.45;;;9.85;;
78931;SDS011;68331;53.362;55.932;2024-03-23T07:40:46;18.77;;;10.48;;
78931;SDS011;68331;53.362;55.932;2024-03-23T07:43:12;18.63;;;10.15;;
78931;SDS011;68331;53.362;55.932;2024-03-23T07:45:38;19.30;;;10.27;;
78931;SDS011;68331;53.362;55.932;2024-03-23T07:48:04;22.40;;;9.60;;
78931;SDS011;68331;53.362;55.932;2024-03-23T07:50:30;18.13;;;9.45;;
78931;SDS011;68331;53.362;55.932;2024-03-23T07:52:56;19.40;;;9.35;;
78931;SDS011;68331;53.362;55.932;2024-03-23T07:55:22;17.17;;;9.07;;
78931;SDS011;68331;53.362;55.932;2024-03-23T07:57:48;18.88;;;9.38;;
78931;SDS011;68331;53.362;55.932;2024-03-23T08:00:16;19.45;;;9.13;;
78931;SDS011;68331;53.362;55.932;2024-03-23T08:02:42;20.35;;;9.25;;
78931;SDS011;68331;53.362;55.932;2024-03-23T08:05:08;17.80;;;8.30;;
78931;SDS011;68331;53.362;55.932;2024-03-23T08:07:34;20.35;;;8.18;;
78931;SDS011;68331;53.362;55.932;2024-03-23T08:10:00;17.35;;;7.70;;
78931;SDS011;68331;53.362;55.932;2024-03-23T08:12:29;19.42;;;7.75;;
78931;SDS011;68331;53.362;55.932;2024-03-23T08:14:55;16.85;;;8.85;;
78931;SDS011;68331;53.362;55.932;2024-03-23T08:17:21;17.15;;;7.28;;
78931;SDS011;68331;53.362;55.932;2024-03-23T08:19:48;14.32;;;7.15;;
78931;SDS011;68331;53.362;55.932;2024-03-23T08:22:14;14.98;;;7.43;;
78931;SDS011;68331;53.362;55.932;2024-03-23T08:24:40;11.35;;;7.05;;
78931;SDS011;68331;53.362;55.932;2024-03-23T08:27:06;10.32;;;5.78;;
78931;SDS011;68331;53.362;55.932;2024-03-23T08:29:32;12.48;;;6.57;;
78931;SDS011;68331;53.362;55.932;2024-03-23T08:31:58;11.50;;;6.60;;
78931;SDS011;68331;53.362;55.932;2024-03-23T08:34:24;11.05;;;6.35;;
78931;SDS011;68331;53.362;55.932;2024-03-23T08:36:50;11.93;;;7.00;;
78931;SDS011;68331;53.362;55.932;2024-03-23T08:39:16;8.63;;;6.15;;
78931;SDS011;68331;53.362;55.932;2024-03-23T08:41:42;10.57;;;6.15;;
78931;SDS011;68331;53.362;55.932;2024-03-23T08:44:11;9.55;;;6.25;;
78931;SDS011;68331;53.362;55.932;2024-03-23T08:46:37;10.73;;;5.75;;
78931;SDS011;68331;53.362;55.932;2024-03-23T08:49:03;9.15;;;5.47;;
78931;SDS011;68331;53.362;55.932;2024-03-23T08:51:29;8.48;;;5.35;;
78931;SDS011;68331;53.362;55.932;2024-03-23T08:53:55;9.57;;;5.97;;
78931;SDS011;68331;53.362;55.932;2024-03-23T08:56:21;10.48;;;5.18;;
78931;SDS011;68331;53.362;55.932;2024-03-23T08:58:47;9.70;;;5.20;;
78931;SDS011;68331;53.362;55.932;2024-03-23T09:01:13;8.80;;;4.88;;
78931;SDS011;68331;53.362;55.932;2024-03-23T09:03:39;8.52;;;5.20;;
78931;SDS011;68331;53.362;55.932;2024-03-23T09:06:14;7.53;;;4.50;;
78931;SDS011;68331;53.362;55.932;2024-03-23T09:08:40;6.05;;;4.80;;
78931;SDS011;68331;53.362;55.932;2024-03-23T09:11:07;6.85;;;4.93;;
78931;SDS011;68331;53.362;55.932;2024-03-23T09:13:36;5.30;;;3.85;;
78931;SDS011;68331;53.362;55.932;2024-03-23T09:16:03;5.13;;;3.65;;
78931;SDS011;68331;53.362;55.932;2024-03-23T09:18:32;4.82;;;3.65;;
78931;SDS011;68331;53.362;55.932;2024-03-23T09:21:06;4.55;;;3.53;;
78931;SDS011;68331;53.362;55.932;2024-03-23T09:23:37;9.25;;;3.97;;
78931;SDS011;68331;53.362;55.932;2024-03-23T09:26:03;3.65;;;2.80;;
78931;SDS011;68331;53.362;55.932;2024-03-23T09:28:29;4.45;;;3.75;;
78931;SDS011;68331;53.362;55.932;2024-03-23T09:31:01;3.80;;;3.13;;
78931;SDS011;68331;53.362;55.932;2024-03-23T09:33:28;4.15;;;2.88;;
78931;SDS011;68331;53.362;55.932;2024-03-23T09:35:55;3.90;;;2.67;;
78931;SDS011;68331;53.362;55.932;2024-03-23T09:38:24;3.45;;;2.78;;
78931;SDS011;68331;53.362;55.932;2024-03-23T09:40:52;3.10;;;2.80;;
78931;SDS011;68331;53.362;55.932;2024-03-23T09:43:19;4.65;;;3.50;;
78931;SDS011;68331;53.362;55.932;2024-03-23T09:45:45;3.90;;;2.45;;
78931;SDS011;68331;53.362;55.932;2024-03-23T09:48:12;3.67;;;2.63;;
78931;SDS011;68331;53.362;55.932;2024-03-23T09:50:42;3.97;;;2.30;;
78931;SDS011;68331;53.362;55.932;2024-03-23T09:53:10;2.63;;;2.03;;
78931;SDS011;68331;53.362;55.932;2024-03-23T09:55:37;2.22;;;1.92;;
78931;SDS011;68331;53.362;55.932;2024-03-23T09:58:05;1.85;;;1.70;;
78931;SDS011;68331;53.362;55.932;2024-03-23T10:00:32;3.35;;;2.58;;
78931;SDS011;68331;53.362;55.932;2024-03-23T10:05:27;2.13;;;1.92;;
78931;SDS011;68331;53.362;55.932;2024-03-23T10:10:20;2.13;;;1.92;;
78931;SDS011;68331;53.362;55.932;2024-03-23T10:12:49;1.85;;;1.70;;
78931;SDS011;68331;53.362;55.932;2024-03-23T10:15:20;6.90;;;2.00;;
78931;SDS011;68331;53.362;55.932;2024-03-23T10:17:50;3.67;;;2.00;;
78931;SDS011;68331;53.362;55.932;2024-03-23T10:20:20;6.25;;;2.60;;
78931;SDS011;68331;53.362;55.932;2024-03-23T10:22:50;2.80;;;1.90;;
78931;SDS011;68331;53.362;55.932;2024-03-23T10:25:22;11.27;;;2.92;;
78931;SDS011;68331;53.362;55.932;2024-03-23T10:27:58;2.20;;;1.50;;
78931;SDS011;68331;53.362;55.932;2024-03-23T10:30:25;4.05;;;3.15;;
78931;SDS011;68331;53.362;55.932;2024-03-23T10:33:09;5.10;;;2.03;;
78931;SDS011;68331;53.362;55.932;2024-03-23T10:35:37;2.92;;;1.75;;
78931;SDS011;68331;53.362;55.932;2024-03-23T10:38:04;2.05;;;1.88;;
78931;SDS011;68331;53.362;55.932;2024-03-23T10:40:35;4.63;;;1.77;;
78931;SDS011;68331;53.362;55.932;2024-03-23T10:43:05;8.50;;;2.55;;
78931;SDS011;68331;53.362;55.932;2024-03-23T10:45:34;1.73;;;1.63;;
78931;SDS011;68331;53.362;55.932;2024-03-23T10:48:01;3.47;;;1.80;;
78931;SDS011;68331;53.362;55.932;2024-03-23T10:50:28;2.17;;;1.38;;
78931;SDS011;68331;53.362;55.932;2024-03-23T10:52:54;2.60;;;1.65;;
78931;SDS011;68331;53.362;55.932;2024-03-23T10:55:24;4.15;;;1.83;;
78931;SDS011;68331;53.362;55.932;2024-03-23T10:57:52;1.55;;;1.33;;
78931;SDS011;68331;53.362;55.932;2024-03-23T11:00:20;2.50;;;1.50;;
78931;SDS011;68331;53.362;55.932;2024-03-23T11:02:48;2.60;;;1.90;;
78931;SDS011;68331;53.362;55.932;2024-03-23T11:05:32;1.70;;;1.60;;
78931;SDS011;68331;53.362;55.932;2024-03-23T11:07:59;2.05;;;1.95;;
78931;SDS011;68331;53.362;55.932;2024-03-23T11:10:29;1.80;;;1.70;;
78931;SDS011;68331;53.362;55.932;2024-03-23T11:12:57;2.53;;;1.88;;
78931;SDS011;68331;53.362;55.932;2024-03-23T11:15:23;2.28;;;2.10;;
78931;SDS011;68331;53.362;55.932;2024-03-23T11:18:05;2.00;;;1.80;;
78931;SDS011;68331;53.362;55.932;2024-03-23T11:20:36;2.47;;;2.22;;
78931;SDS011;68331;53.362;55.932;2024-03-23T11:23:02;1.58;;;1.48;;
78931;SDS011;68331;53.362;55.932;2024-03-23T11:25:28;2.28;;;1.98;;
78931;SDS011;68331;53.362;55.932;2024-03-23T11:32:50;5.88;;;2.30;;
78931;SDS011;68331;53.362;55.932;2024-03-23T11:35:36;3.83;;;1.90;;
78931;SDS011;68331;53.362;55.932;2024-03-23T11:40:33;2.30;;;2.10;;
78931;SDS011;68331;53.362;55.932;2024-03-23T11:45:28;2.58;;;2.38;;
78931;SDS011;68331;53.362;55.932;2024-03-23T11:48:08;3.88;;;2.63;;
78931;SDS011;68331;53.362;55.932;2024-03-23T11:50:48;2.85;;;1.90;;
78931;SDS011;68331;53.362;55.932;2024-03-23T11:53:19;3.17;;;2.53;;
78931;SDS011;68331;53.362;55.932;2024-03-23T11:55:56;2.28;;;2.03;;
78931;SDS011;68331;53.362;55.932;2024-03-23T11:58:24;2.75;;;2.20;;
78931;SDS011;68331;53.362;55.932;2024-03-23T12:03:24;2.05;;;1.88;;
78931;SDS011;68331;53.362;55.932;2024-03-23T12:05:52;2.47;;;2.28;;
78931;SDS011;68331;53.362;55.932;2024-03-23T12:10:52;2.67;;;2.35;;
78931;SDS011;68331;53.362;55.932;2024-03-23T12:13:29;2.55;;;2.35;;
78931;SDS011;68331;53.362;55.932;2024-03-23T12:15:58;2.72;;;2.53;;
78931;SDS011;68331;53.362;55.932;2024-03-23T12:18:46;2.35;;;2.15;;
78931;SDS011;68331;53.362;55.932;2024-03-23T12:21:14;6.97;;;3.03;;
78931;SDS011;68331;53.362;55.932;2024-03-23T12:23:40;3.70;;;2.50;;
78931;SDS011;68331;53.362;55.932;2024-03-23T12:26:08;4.80;;;1.90;;
78931;SDS011;68331;53.362;55.932;2024-03-23T12:28:34;2.35;;;2.03;;
78931;SDS011;68331;53.362;55.932;2024-03-23T12:31:00;2.40;;;2.20;;
78931;SDS011;68331;53.362;55.932;2024-03-23T12:33:26;3.50;;;2.85;;
78931;SDS011;68331;53.362;55.932;2024-03-23T12:35:52;1.88;;;1.77;;
78931;SDS011;68331;53.362;55.932;2024-03-23T12:38:19;2.95;;;2.25;;
78931;SDS011;68331;53.362;55.932;2024-03-23T12:40:51;2.22;;;2.03;;
78931;SDS011;68331;53.362;55.932;2024-03-23T12:43:17;2.50;;;2.30;;
78931;SDS011;68331;53.362;55.932;2024-03-23T12:45:47;8.95;;;2.83;;
78931;SDS011;68331;53.362;55.932;2024-03-23T12:48:13;3.80;;;2.35;;
78931;SDS011;68331;53.362;55.932;2024-03-23T12:50:40;13.40;;;3.20;;
78931;SDS011;68331;53.362;55.932;2024-03-23T12:53:06;5.25;;;2.72;;
78931;SDS011;68331;53.362;55.932;2024-03-23T12:55:31;5.50;;;2.47;;
78931;SDS011;68331;53.362;55.932;2024-03-23T12:58:00;3.63;;;2.05;;
78931;SDS011;68331;53.362;55.932;2024-03-23T13:00:26;3.83;;;2.72;;
78931;SDS011;68331;53.362;55.932;2024-03-23T13:02:52;3.25;;;2.25;;
78931;SDS011;68331;53.362;55.932;2024-03-23T13:05:18;3.97;;;2.53;;
78931;SDS011;68331;53.362;55.932;2024-03-23T13:07:44;3.45;;;2.42;;
78931;SDS011;68331;53.362;55.932;2024-03-23T13:10:09;4.68;;;2.03;;
78931;SDS011;68331;53.362;55.932;2024-03-23T13:12:36;4.70;;;2.80;;
78931;SDS011;68331;53.362;55.932;2024-03-23T13:15:02;3.88;;;2.40;;
78931;SDS011;68331;53.362;55.932;2024-03-23T13:17:32;4.82;;;2.53;;
78931;SDS011;68331;53.362;55.932;2024-03-23T13:19:58;3.60;;;2.35;;
78931;SDS011;68331;53.362;55.932;2024-03-23T13:22:24;3.03;;;2.35;;
78931;SDS011;68331;53.362;55.932;2024-03-23T13:24:50;3.92;;;2.08;;
78931;SDS011;68331;53.362;55.932;2024-03-23T13:27:16;3.85;;;2.45;;
78931;SDS011;68331;53.362;55.932;2024-03-23T13:29:42;2.45;;;2.25;;
78931;SDS011;68331;53.362;55.932;2024-03-23T13:32:08;5.20;;;2.65;;
78931;SDS011;68331;53.362;55.932;2024-03-23T13:34:34;11.43;;;3.75;;
78931;SDS011;68331;53.362;55.932;2024-03-23T13:37:01;3.70;;;3.33;;
78931;SDS011;68331;53.362;55.932;2024-03-23T13:39:27;4.13;;;2.60;;
78931;SDS011;68331;53.362;55.932;2024-03-23T13:41:54;3.30;;;2.90;;
78931;SDS011;68331;53.362;55.932;2024-03-23T13:44:22;2.95;;;2.55;;
78931;SDS011;68331;53.362;55.932;2024-03-23T13:46:48;2.97;;;2.78;;
78931;SDS011;68331;53.362;55.932;2024-03-23T13:49:27;5.53;;;2.70;;
78931;SDS011;68331;53.362;55.932;2024-03-23T13:51:54;2.75;;;2.25;;
78931;SDS011;68331;53.362;55.932;2024-03-23T13:54:22;5.18;;;2.90;;
78931;SDS011;68331;53.362;55.932;2024-03-23T13:56:53;3.13;;;2.83;;
78931;SDS011;68331;53.362;55.932;2024-03-23T13:59:20;2.72;;;2.53;;
78931;SDS011;68331;53.362;55.932;2024-03-23T14:01:49;4.43;;;3.17;;
78931;SDS011;68331;53.362;55.932;2024-03-23T14:06:44;4.43;;;2.97;;
78931;SDS011;68331;53.362;55.932;2024-03-23T14:09:11;3.88;;;2.92;;
78931;SDS011;68331;53.362;55.932;2024-03-23T14:11:38;3.58;;;3.13;;
78931;SDS011;68331;53.362;55.932;2024-03-23T14:14:04;4.20;;;3.67;;
78931;SDS011;68331;53.362;55.932;2024-03-23T14:16:30;4.43;;;3.42;;
78931;SDS011;68331;53.362;55.932;2024-03-23T14:18:57;4.25;;;3.85;;
78931;SDS011;68331;53.362;55.932;2024-03-23T14:21:23;4.05;;;3.58;;
78931;SDS011;68331;53.362;55.932;2024-03-23T14:23:49;3.88;;;2.88;;
78931;SDS011;68331;53.362;55.932;2024-03-23T14:26:15;3.58;;;3.03;;
78931;SDS011;68331;53.362;55.932;2024-03-23T14:28:41;3.72;;;3.42;;
78931;SDS011;68331;53.362;55.932;2024-03-23T14:31:07;29.02;;;5.55;;
78931;SDS011;68331;53.362;55.932;2024-03-23T14:33:38;9.68;;;3.80;;
78931;SDS011;68331;53.362;55.932;2024-03-23T14:36:13;31.52;;;5.22;;
78931;SDS011;68331;53.362;55.932;2024-03-23T14:38:40;14.90;;;7.05;;
78931;SDS011;68331;53.362;55.932;2024-03-23T14:41:06;5.55;;;3.40;;
78931;SDS011;68331;53.362;55.932;2024-03-23T14:43:32;9.00;;;3.97;;
78931;SDS011;68331;53.362;55.932;2024-03-23T14:48:38;5.35;;;3.47;;
78931;SDS011;68331;53.362;55.932;2024-03-23T14:51:05;3.53;;;3.03;;
78931;SDS011;68331;53.362;55.932;2024-03-23T14:53:38;11.15;;;3.15;;
78931;SDS011;68331;53.362;55.932;2024-03-23T14:56:08;16.17;;;4.20;;
78931;SDS011;68331;53.362;55.932;2024-03-23T14:58:37;11.43;;;3.75;;
78931;SDS011;68331;53.362;55.932;2024-03-23T15:01:04;4.07;;;3.10;;
78931;SDS011;68331;53.362;55.932;2024-03-23T15:03:39;5.63;;;3.58;;
78931;SDS011;68331;53.362;55.932;2024-03-23T15:06:06;5.13;;;3.15;;
78931;SDS011;68331;53.362;55.932;2024-03-23T15:08:35;9.90;;;3.97;;
78931;SDS011;68331;53.362;55.932;2024-03-23T15:11:06;4.57;;;2.83;;
78931;SDS011;68331;53.362;55.932;2024-03-23T15:13:33;9.10;;;3.83;;
78931;SDS011;68331;53.362;55.932;2024-03-23T15:16:00;4.25;;;3.30;;
78931;SDS011;68331;53.362;55.932;2024-03-23T15:18:26;5.38;;;3.55;;
78931;SDS011;68331;53.362;55.932;2024-03-23T15:20:53;4.00;;;3.63;;
78931;SDS011;68331;53.362;55.932;2024-03-23T15:23:22;3.33;;;3.00;;
78931;SDS011;68331;53.362;55.932;2024-03-23T15:25:55;3.35;;;3.08;;
78931;SDS011;68331;53.362;55.932;2024-03-23T15:28:22;3.53;;;3.22;;
78931;SDS011;68331;53.362;55.932;2024-03-23T15:30:49;4.15;;;3.35;;
78931;SDS011;68331;53.362;55.932;2024-03-23T15:33:15;4.13;;;3.20;;
78931;SDS011;68331;53.362;55.932;2024-03-23T15:35:41;4.88;;;3.22;;
78931;SDS011;68331;53.362;55.932;2024-03-23T15:38:07;5.30;;;3.15;;
78931;SDS011;68331;53.362;55.932;2024-03-23T15:40:33;3.67;;;3.25;;
78931;SDS011;68331;53.362;55.932;2024-03-23T15:42:59;4.78;;;3.10;;
78931;SDS011;68331;53.362;55.932;2024-03-23T15:45:26;3.72;;;2.92;;